sensor_id;sensor_type;location;lat;lon;timestamp;pressure;altitude;pressure_sealevel;temperature;humidity
48824;BME280;34640;53.590;10.054;2022-07-17T00:00:27;102090.06;;;14.04;94.71
48824;BME280;34640;53.590;10.054;2022-07-17T00:03:00;102093.19;;;13.98;95.09
48824;BME280;34640;53.590;10.054;2022-07-17T00:05:34;102086.75;;;13.93;95.42
48824;BME280;34640;53.590;10.054;2022-07-17T00:08:09;102090.19;;;13.92;95.33
48824;BME280;34640;53.590;10.054;2022-07-17T00:10:43;102091.69;;;13.89;95.48
48824;BME280;34640;53.590;10.054;2022-07-17T00:13:16;102092.16;;;13.83;96.09
48824;BME280;34640;53.590;10.054;2022-07-17T00:15:50;102090.44;;;13.84;97.21
48824;BME280;34640;53.590;10.054;2022-07-17T00:18:24;102090.25;;;13.81;97.37
48824;BME280;34640;53.590;10.054;2022-07-17T00:20:58;102099.22;;;13.84;97.81
48824;BME280;34640;53.590;10.054;2022-07-17T00:23:31;102089.75;;;13.86;98.06
48824;BME280;34640;53.590;10.054;2022-07-17T00:26:05;102087.63;;;13.81;98.31
48824;BME280;34640;53.590;10.054;2022-07-17T00:28:38;102093.75;;;13.81;98.78
48824;BME280;34640;53.590;10.054;2022-07-17T00:31:11;102099.22;;;13.84;98.68
48824;BME280;34640;53.590;10.054;2022-07-17T00:33:44;102109.06;;;13.75;98.45
48824;BME280;34640;53.590;10.054;2022-07-17T00:36:18;102100.09;;;13.71;99.42
48824;BME280;34640;53.590;10.054;2022-07-17T00:38:51;102090.22;;;13.67;99.45
48824;BME280;34640;53.590;10.054;2022-07-17T00:41:24;102097.84;;;13.64;99.38
48824;BME280;34640;53.590;10.054;2022-07-17T00:44:03;102094.00;;;13.59;99.63
48824;BME280;34640;53.590;10.054;2022-07-17T00:46:36;102091.88;;;13.54;100.00
48824;BME280;34640;53.590;10.054;2022-07-17T00:49:09;102089.88;;;13.50;100.00
48824;BME280;34640;53.590;10.054;2022-07-17T00:51:44;102082.72;;;13.47;100.00
48824;BME280;34640;53.590;10.054;2022-07-17T00:54:17;102082.59;;;13.45;100.00
48824;BME280;34640;53.590;10.054;2022-07-17T00:56:51;102087.59;;;13.42;100.00
48824;BME280;34640;53.590;10.054;2022-07-17T00:59:24;102080.56;;;13.41;100.00
48824;BME280;34640;53.590;10.054;2022-07-17T01:01:58;102084.97;;;13.42;100.00
48824;BME280;34640;53.590;10.054;2022-07-17T01:04:31;102084.19;;;13.43;100.00
48824;BME280;34640;53.590;10.054;2022-07-17T01:07:06;102083.97;;;13.40;100.00
48824;BME280;34640;53.590;10.054;2022-07-17T01:09:39;102084.66;;;13.38;100.00
48824;BME280;34640;53.590;10.054;2022-07-17T01:12:13;102088.78;;;13.34;100.00
48824;BME280;34640;53.590;10.054;2022-07-17T01:14:47;102086.97;;;13.33;100.00
48824;BME280;34640;53.590;10.054;2022-07-17T01:17:21;102086.97;;;13.33;100.00
48824;BME280;34640;53.590;10.054;2022-07-17T01:19:54;102090.50;;;13.34;100.00
48824;BME280;34640;53.590;10.054;2022-07-17T01:22:28;102092.81;;;13.29;100.00
48824;BME280;34640;53.590;10.054;2022-07-17T01:25:01;102094.41;;;13.27;100.00
48824;BME280;34640;53.590;10.054;2022-07-17T01:27:34;102092.69;;;13.28;100.00
48824;BME280;34640;53.590;10.054;2022-07-17T01:30:09;102091.00;;;13.28;100.00
48824;BME280;34640;53.590;10.054;2022-07-17T01:32:42;102105.19;;;13.32;100.00
48824;BME280;34640;53.590;10.054;2022-07-17T01:35:16;102098.78;;;13.40;100.00
48824;BME280;34640;53.590;10.054;2022-07-17T01:37:50;102104.44;;;13.46;100.00
48824;BME280;34640;53.590;10.054;2022-07-17T01:40:23;102100.22;;;13.48;100.00
48824;BME280;34640;53.590;10.054;2022-07-17T01:42:56;102101.56;;;13.55;100.00
48824;BME280;34640;53.590;10.054;2022-07-17T01:45:29;102106.28;;;13.60;100.00
48824;BME280;34640;53.590;10.054;2022-07-17T01:48:03;102105.03;;;13.67;100.00
48824;BME280;34640;53.590;10.054;2022-07-17T01:50:37;102105.78;;;13.66;100.00
48824;BME280;34640;53.590;10.054;2022-07-17T01:53:11;102110.13;;;13.65;100.00
48824;BME280;34640;53.590;10.054;2022-07-17T01:55:44;102112.06;;;13.68;100.00
48824;BME280;34640;53.590;10.054;2022-07-17T01:58:18;102104.31;;;13.69;100.00
48824;BME280;34640;53.590;10.054;2022-07-17T02:00:51;102107.25;;;13.74;100.00
48824;BME280;34640;53.590;10.054;2022-07-17T02:03:25;102110.19;;;13.79;100.00
48824;BME280;34640;53.590;10.054;2022-07-17T02:05:58;102104.03;;;13.78;100.00
48824;BME280;34640;53.590;10.054;2022-07-17T02:08:32;102095.38;;;13.79;100.00
48824;BME280;34640;53.590;10.054;2022-07-17T02:11:06;102099.81;;;13.80;100.00
48824;BME280;34640;53.590;10.054;2022-07-17T02:13:39;102093.06;;;13.84;100.00
48824;BME280;34640;53.590;10.054;2022-07-17T02:16:12;102096.69;;;13.86;99.69
48824;BME280;34640;53.590;10.054;2022-07-17T02:18:45;102098.41;;;13.85;99.80
48824;BME280;34640;53.590;10.054;2022-07-17T02:21:18;102095.22;;;13.89;99.95
48824;BME280;34640;53.590;10.054;2022-07-17T02:23:53;102098.13;;;13.94;99.34
48824;BME280;34640;53.590;10.054;2022-07-17T02:26:26;102102.38;;;14.05;99.20
48824;BME280;34640;53.590;10.054;2022-07-17T02:28:59;102100.56;;;14.04;99.25
48824;BME280;34640;53.590;10.054;2022-07-17T02:31:32;102106.91;;;14.07;99.06
48824;BME280;34640;53.590;10.054;2022-07-17T02:34:05;102112.84;;;14.05;98.90
48824;BME280;34640;53.590;10.054;2022-07-17T02:36:38;102121.13;;;14.11;98.50
48824;BME280;34640;53.590;10.054;2022-07-17T02:39:13;102130.41;;;14.19;97.94
48824;BME280;34640;53.590;10.054;2022-07-17T02:41:46;102133.03;;;14.19;97.30
48824;BME280;34640;53.590;10.054;2022-07-17T02:44:19;102130.41;;;14.19;97.48
48824;BME280;34640;53.590;10.054;2022-07-17T02:46:52;102133.44;;;14.25;96.93
48824;BME280;34640;53.590;10.054;2022-07-17T02:49:25;102136.97;;;14.26;96.48
48824;BME280;34640;53.590;10.054;2022-07-17T02:51:58;102137.25;;;14.17;96.36
48824;BME280;34640;53.590;10.054;2022-07-17T02:54:32;102142.31;;;14.14;96.67
48824;BME280;34640;53.590;10.054;2022-07-17T02:57:05;102139.59;;;14.13;96.43
48824;BME280;34640;53.590;10.054;2022-07-17T02:59:38;102144.81;;;14.13;96.69
48824;BME280;34640;53.590;10.054;2022-07-17T03:02:11;102144.22;;;14.17;97.02
48824;BME280;34640;53.590;10.054;2022-07-17T03:04:44;102153.09;;;14.19;96.53
48824;BME280;34640;53.590;10.054;2022-07-17T03:07:17;102149.56;;;14.18;96.25
48824;BME280;34640;53.590;10.054;2022-07-17T03:09:54;102156.00;;;14.23;96.28
48824;BME280;34640;53.590;10.054;2022-07-17T03:12:27;102165.88;;;14.27;95.99
48824;BME280;34640;53.590;10.054;2022-07-17T03:15:00;102163.88;;;14.23;95.65
48824;BME280;34640;53.590;10.054;2022-07-17T03:17:34;102160.13;;;14.20;95.83
48824;BME280;34640;53.590;10.054;2022-07-17T03:20:09;102161.84;;;14.19;95.93
48824;BME280;34640;53.590;10.054;2022-07-17T03:22:42;102162.75;;;14.20;95.85
48824;BME280;34640;53.590;10.054;2022-07-17T03:25:16;102157.31;;;14.17;95.82
48824;BME280;34640;53.590;10.054;2022-07-17T03:27:49;102150.47;;;14.19;95.77
48824;BME280;34640;53.590;10.054;2022-07-17T03:30:22;102141.78;;;14.20;95.39
48824;BME280;34640;53.590;10.054;2022-07-17T03:32:55;102135.75;;;14.21;95.25
48824;BME280;34640;53.590;10.054;2022-07-17T03:35:28;102129.69;;;14.22;94.81
48824;BME280;34640;53.590;10.054;2022-07-17T03:38:02;102121.66;;;14.19;94.88
48824;BME280;34640;53.590;10.054;2022-07-17T03:40:36;102128.59;;;14.18;95.23
48824;BME280;34640;53.590;10.054;2022-07-17T03:43:09;102114.78;;;14.21;94.79
48824;BME280;34640;53.590;10.054;2022-07-17T03:45:42;102118.63;;;14.26;94.47
48824;BME280;34640;53.590;10.054;2022-07-17T03:48:16;102119.53;;;14.26;94.53
48824;BME280;34640;53.590;10.054;2022-07-17T03:50:51;102125.66;;;14.27;94.20
48824;BME280;34640;53.590;10.054;2022-07-17T03:53:25;102137.88;;;14.26;94.16
48824;BME280;34640;53.590;10.054;2022-07-17T03:55:59;102141.41;;;14.27;94.76
48824;BME280;34640;53.590;10.054;2022-07-17T03:58:32;102150.00;;;14.37;94.35
48824;BME280;34640;53.590;10.054;2022-07-17T04:01:05;102154.75;;;14.43;94.32
48824;BME280;34640;53.590;10.054;2022-07-17T04:03:38;102162.00;;;14.47;94.01
48824;BME280;34640;53.590;10.054;2022-07-17T04:06:11;102169.69;;;14.57;93.92
48824;BME280;34640;53.590;10.054;2022-07-17T04:08:44;102162.03;;;14.60;93.06
48824;BME280;34640;53.590;10.054;2022-07-17T04:11:18;102151.53;;;14.60;93.39
48824;BME280;34640;53.590;10.054;2022-07-17T04:13:52;102159.41;;;14.60;93.38
48824;BME280;34640;53.590;10.054;2022-07-17T04:16:25;102160.31;;;14.61;93.29
48824;BME280;34640;53.590;10.054;2022-07-17T04:18:58;102155.16;;;14.62;92.87
48824;BME280;34640;53.590;10.054;2022-07-17T04:21:32;102161.22;;;14.61;92.89
48824;BME280;34640;53.590;10.054;2022-07-17T04:24:05;102170.09;;;14.77;92.87
48824;BME280;34640;53.590;10.054;2022-07-17T04:26:39;102159.63;;;14.77;92.49
48824;BME280;34640;53.590;10.054;2022-07-17T04:29:13;102167.97;;;14.71;92.24
48824;BME280;34640;53.590;10.054;2022-07-17T04:31:47;102151.66;;;14.75;91.92
48824;BME280;34640;53.590;10.054;2022-07-17T04:34:20;102158.00;;;14.79;92.09
48824;BME280;34640;53.590;10.054;2022-07-17T04:36:53;102159.50;;;14.75;92.13
48824;BME280;34640;53.590;10.054;2022-07-17T04:39:27;102157.28;;;14.81;91.60
48824;BME280;34640;53.590;10.054;2022-07-17T04:42:01;102157.09;;;14.78;91.73
48824;BME280;34640;53.590;10.054;2022-07-17T04:44:34;102152.66;;;14.77;91.64
48824;BME280;34640;53.590;10.054;2022-07-17T04:47:08;102149.41;;;14.81;90.84
48824;BME280;34640;53.590;10.054;2022-07-17T04:49:41;102143.06;;;14.78;91.26
48824;BME280;34640;53.590;10.054;2022-07-17T04:52:14;102136.09;;;14.78;91.47
48824;BME280;34640;53.590;10.054;2022-07-17T04:54:47;102136.91;;;14.77;91.31
48824;BME280;34640;53.590;10.054;2022-07-17T04:57:21;102141.53;;;14.81;91.23
48824;BME280;34640;53.590;10.054;2022-07-17T04:59:55;102145.94;;;14.95;90.79
48824;BME280;34640;53.590;10.054;2022-07-17T05:02:28;102142.50;;;15.10;90.36
48824;BME280;34640;53.590;10.054;2022-07-17T05:05:01;102147.31;;;15.17;89.53
48824;BME280;34640;53.590;10.054;2022-07-17T05:07:35;102139.75;;;15.21;88.54
48824;BME280;34640;53.590;10.054;2022-07-17T05:10:08;102142.59;;;15.11;89.05
48824;BME280;34640;53.590;10.054;2022-07-17T05:12:43;102141.97;;;15.15;89.15
48824;BME280;34640;53.590;10.054;2022-07-17T05:15:16;102144.66;;;15.30;88.72
48824;BME280;34640;53.590;10.054;2022-07-17T05:17:50;102139.50;;;15.32;88.48
48824;BME280;34640;53.590;10.054;2022-07-17T05:20:23;102140.94;;;15.26;87.94
48824;BME280;34640;53.590;10.054;2022-07-17T05:22:57;102150.00;;;15.32;87.78
48824;BME280;34640;53.590;10.054;2022-07-17T05:25:30;102155.34;;;15.33;88.03
48824;BME280;34640;53.590;10.054;2022-07-17T05:28:05;102149.00;;;15.29;87.63
48824;BME280;34640;53.590;10.054;2022-07-17T05:30:38;102165.84;;;15.33;88.22
48824;BME280;34640;53.590;10.054;2022-07-17T05:33:11;102164.50;;;15.40;87.16
48824;BME280;34640;53.590;10.054;2022-07-17T05:35:44;102169.44;;;15.48;87.38
48824;BME280;34640;53.590;10.054;2022-07-17T05:38:17;102178.22;;;15.49;86.85
48824;BME280;34640;53.590;10.054;2022-07-17T05:40:50;102174.06;;;15.52;87.24
48824;BME280;34640;53.590;10.054;2022-07-17T05:43:30;102175.59;;;15.62;86.67
48824;BME280;34640;53.590;10.054;2022-07-17T05:46:03;102161.56;;;15.62;86.35
48824;BME280;34640;53.590;10.054;2022-07-17T05:48:36;102162.66;;;15.65;86.22
48824;BME280;34640;53.590;10.054;2022-07-17T05:51:09;102155.06;;;15.56;86.28
48824;BME280;34640;53.590;10.054;2022-07-17T05:53:47;102158.84;;;15.47;87.52
48824;BME280;34640;53.590;10.054;2022-07-17T05:56:20;102165.19;;;15.50;87.37
48824;BME280;34640;53.590;10.054;2022-07-17T05:58:54;102170.34;;;15.62;87.14
48824;BME280;34640;53.590;10.054;2022-07-17T06:01:27;102159.72;;;15.61;86.88
48824;BME280;34640;53.590;10.054;2022-07-17T06:04:01;102164.75;;;15.57;86.40
48824;BME280;34640;53.590;10.054;2022-07-17T06:06:34;102172.44;;;15.68;86.27
48824;BME280;34640;53.590;10.054;2022-07-17T06:09:07;102167.66;;;15.75;85.25
48824;BME280;34640;53.590;10.054;2022-07-17T06:11:41;102172.94;;;15.90;84.80
48824;BME280;34640;53.590;10.054;2022-07-17T06:14:16;102171.78;;;16.29;84.49
48824;BME280;34640;53.590;10.054;2022-07-17T06:16:49;102175.59;;;16.49;83.10
48824;BME280;34640;53.590;10.054;2022-07-17T06:19:22;102182.63;;;16.65;81.40
48824;BME280;34640;53.590;10.054;2022-07-17T06:21:55;102176.88;;;16.70;80.27
48824;BME280;34640;53.590;10.054;2022-07-17T06:24:28;102184.13;;;16.74;79.57
48824;BME280;34640;53.590;10.054;2022-07-17T06:27:01;102185.53;;;16.84;79.46
48824;BME280;34640;53.590;10.054;2022-07-17T06:29:35;102187.53;;;16.88;79.35
48824;BME280;34640;53.590;10.054;2022-07-17T06:32:14;102197.84;;;17.00;78.32
48824;BME280;34640;53.590;10.054;2022-07-17T06:34:52;102189.31;;;17.04;77.34
48824;BME280;34640;53.590;10.054;2022-07-17T06:37:26;102195.78;;;16.94;76.76
48824;BME280;34640;53.590;10.054;2022-07-17T06:39:59;102192.25;;;16.94;76.90
48824;BME280;34640;53.590;10.054;2022-07-17T06:42:32;102202.63;;;17.07;76.82
48824;BME280;34640;53.590;10.054;2022-07-17T06:45:08;102197.00;;;17.16;76.37
48824;BME280;34640;53.590;10.054;2022-07-17T06:47:41;102212.06;;;17.18;75.97
48824;BME280;34640;53.590;10.054;2022-07-17T06:50:14;102206.16;;;17.22;75.31
48824;BME280;34640;53.590;10.054;2022-07-17T06:52:47;102208.78;;;17.22;75.42
48824;BME280;34640;53.590;10.054;2022-07-17T06:55:20;102215.59;;;17.19;75.88
48824;BME280;34640;53.590;10.054;2022-07-17T06:57:54;102220.88;;;17.19;75.31
48824;BME280;34640;53.590;10.054;2022-07-17T07:00:29;102223.00;;;17.26;75.27
48824;BME280;34640;53.590;10.054;2022-07-17T07:03:02;102223.31;;;17.47;74.82
48824;BME280;34640;53.590;10.054;2022-07-17T07:05:35;102234.34;;;17.56;73.29
48824;BME280;34640;53.590;10.054;2022-07-17T07:08:09;102220.03;;;17.67;73.23
48824;BME280;34640;53.590;10.054;2022-07-17T07:10:42;102221.75;;;17.66;73.45
48824;BME280;34640;53.590;10.054;2022-07-17T07:13:15;102227.94;;;17.67;73.57
48824;BME280;34640;53.590;10.054;2022-07-17T07:15:50;102226.31;;;17.69;73.52
48824;BME280;34640;53.590;10.054;2022-07-17T07:18:23;102230.50;;;17.98;72.60
48824;BME280;34640;53.590;10.054;2022-07-17T07:20:56;102228.94;;;18.18;71.66
48824;BME280;34640;53.590;10.054;2022-07-17T07:23:29;102221.97;;;18.36;71.41
48824;BME280;34640;53.590;10.054;2022-07-17T07:26:04;102231.59;;;18.68;70.37
48824;BME280;34640;53.590;10.054;2022-07-17T07:28:37;102217.88;;;18.59;70.40
48824;BME280;34640;53.590;10.054;2022-07-17T07:31:12;102221.66;;;18.64;69.91
48824;BME280;34640;53.590;10.054;2022-07-17T07:33:45;102231.88;;;18.74;70.21
48824;BME280;34640;53.590;10.054;2022-07-17T07:36:18;102228.44;;;18.59;69.20
48824;BME280;34640;53.590;10.054;2022-07-17T07:38:57;102234.22;;;18.52;69.77
48824;BME280;34640;53.590;10.054;2022-07-17T07:41:30;102239.06;;;18.60;69.77
48824;BME280;34640;53.590;10.054;2022-07-17T07:44:04;102244.03;;;18.71;69.11
48824;BME280;34640;53.590;10.054;2022-07-17T07:46:38;102247.19;;;18.81;68.95
48824;BME280;34640;53.590;10.054;2022-07-17T07:49:12;102243.66;;;18.81;69.39
48824;BME280;34640;53.590;10.054;2022-07-17T07:51:46;102243.06;;;18.52;70.39
48824;BME280;34640;53.590;10.054;2022-07-17T07:54:34;102242.66;;;18.45;70.92
48824;BME280;34640;53.590;10.054;2022-07-17T07:57:07;102243.38;;;18.42;70.61
48824;BME280;34640;53.590;10.054;2022-07-17T07:59:40;102247.81;;;18.59;70.20
48824;BME280;34640;53.590;10.054;2022-07-17T08:02:14;102243.28;;;18.91;69.26
48824;BME280;34640;53.590;10.054;2022-07-17T08:04:48;102245.03;;;18.90;69.04
48824;BME280;34640;53.590;10.054;2022-07-17T08:07:21;102247.56;;;19.07;68.76
48824;BME280;34640;53.590;10.054;2022-07-17T08:09:54;102261.88;;;19.47;66.89
48824;BME280;34640;53.590;10.054;2022-07-17T08:12:27;102258.94;;;19.41;66.87
48824;BME280;34640;53.590;10.054;2022-07-17T08:15:17;102272.84;;;19.37;67.17
48824;BME280;34640;53.590;10.054;2022-07-17T08:17:53;102264.34;;;19.80;66.56
48824;BME280;34640;53.590;10.054;2022-07-17T08:20:27;102267.25;;;19.86;63.23
48824;BME280;34640;53.590;10.054;2022-07-17T08:23:00;102267.31;;;19.88;62.91
48824;BME280;34640;53.590;10.054;2022-07-17T08:25:38;102276.44;;;19.75;63.65
48824;BME280;34640;53.590;10.054;2022-07-17T08:28:11;102283.66;;;20.37;62.19
48824;BME280;34640;53.590;10.054;2022-07-17T08:30:44;102278.56;;;21.23;58.98
48824;BME280;34640;53.590;10.054;2022-07-17T08:33:18;102277.09;;;22.45;54.92
48824;BME280;34640;53.590;10.054;2022-07-17T08:35:51;102295.66;;;24.35;49.28
48824;BME280;34640;53.590;10.054;2022-07-17T08:38:24;102296.56;;;23.48;50.91
48824;BME280;34640;53.590;10.054;2022-07-17T08:40:58;102292.97;;;22.69;51.87
48824;BME280;34640;53.590;10.054;2022-07-17T08:43:31;102291.84;;;21.68;54.58
48824;BME280;34640;53.590;10.054;2022-07-17T08:46:13;102294.16;;;21.81;54.88
48824;BME280;34640;53.590;10.054;2022-07-17T08:48:49;102304.25;;;24.56;48.14
48824;BME280;34640;53.590;10.054;2022-07-17T08:51:25;102308.41;;;26.74;42.92
48824;BME280;34640;53.590;10.054;2022-07-17T08:53:59;102305.59;;;26.24;42.09
48824;BME280;34640;53.590;10.054;2022-07-17T08:56:32;102296.75;;;23.83;47.35
48824;BME280;34640;53.590;10.054;2022-07-17T08:59:06;102291.63;;;22.80;50.23
48824;BME280;34640;53.590;10.054;2022-07-17T09:01:39;102294.09;;;21.80;52.75
48824;BME280;34640;53.590;10.054;2022-07-17T09:04:16;102290.19;;;21.92;54.72
48824;BME280;34640;53.590;10.054;2022-07-17T09:06:58;102296.72;;;25.08;47.23
48824;BME280;34640;53.590;10.054;2022-07-17T09:09:33;102312.56;;;27.06;41.97
48824;BME280;34640;53.590;10.054;2022-07-17T09:12:06;102309.56;;;26.41;42.10
48824;BME280;34640;53.590;10.054;2022-07-17T09:14:41;102301.19;;;24.43;45.83
48824;BME280;34640;53.590;10.054;2022-07-17T09:17:14;102304.56;;;22.96;48.53
48824;BME280;34640;53.590;10.054;2022-07-17T09:19:48;102286.63;;;21.92;50.72
48824;BME280;34640;53.590;10.054;2022-07-17T09:22:23;102284.47;;;21.59;51.95
48824;BME280;34640;53.590;10.054;2022-07-17T09:24:57;102283.44;;;21.33;51.83
48824;BME280;34640;53.590;10.054;2022-07-17T09:27:33;102279.38;;;21.43;50.78
48824;BME280;34640;53.590;10.054;2022-07-17T09:30:08;102281.56;;;21.10;53.03
48824;BME280;34640;53.590;10.054;2022-07-17T09:32:43;102281.75;;;20.73;55.83
48824;BME280;34640;53.590;10.054;2022-07-17T09:35:17;102284.94;;;20.85;56.52
48824;BME280;34640;53.590;10.054;2022-07-17T09:37:57;102275.25;;;20.86;56.54
48824;BME280;34640;53.590;10.054;2022-07-17T09:40:32;102271.56;;;20.82;55.92
48824;BME280;34640;53.590;10.054;2022-07-17T09:43:23;102285.91;;;20.87;56.69
48824;BME280;34640;53.590;10.054;2022-07-17T09:45:56;102281.88;;;20.97;54.14
48824;BME280;34640;53.590;10.054;2022-07-17T09:48:29;102285.91;;;21.08;54.01
48824;BME280;34640;53.590;10.054;2022-07-17T09:51:03;102278.84;;;21.29;53.03
48824;BME280;34640;53.590;10.054;2022-07-17T09:53:38;102282.38;;;21.51;53.19
48824;BME280;34640;53.590;10.054;2022-07-17T09:56:11;102281.44;;;21.28;53.94
48824;BME280;34640;53.590;10.054;2022-07-17T09:58:51;102286.81;;;21.29;54.33
48824;BME280;34640;53.590;10.054;2022-07-17T10:01:24;102280.84;;;21.35;52.69
48824;BME280;34640;53.590;10.054;2022-07-17T10:03:57;102284.34;;;21.34;52.61
48824;BME280;34640;53.590;10.054;2022-07-17T10:06:32;102285.13;;;21.54;51.47
48824;BME280;34640;53.590;10.054;2022-07-17T10:09:06;102281.88;;;21.39;51.18
48824;BME280;34640;53.590;10.054;2022-07-17T10:11:41;102280.50;;;21.48;51.82
48824;BME280;34640;53.590;10.054;2022-07-17T10:14:19;102282.41;;;21.75;51.54
48824;BME280;34640;53.590;10.054;2022-07-17T10:16:52;102282.53;;;21.78;51.30
48824;BME280;34640;53.590;10.054;2022-07-17T10:19:26;102276.38;;;21.56;52.22
48824;BME280;34640;53.590;10.054;2022-07-17T10:22:04;102282.53;;;21.33;52.69
48824;BME280;34640;53.590;10.054;2022-07-17T10:24:45;102275.66;;;21.38;51.87
48824;BME280;34640;53.590;10.054;2022-07-17T10:27:20;102281.75;;;21.58;51.08
48824;BME280;34640;53.590;10.054;2022-07-17T10:30:01;102267.66;;;21.59;51.07
48824;BME280;34640;53.590;10.054;2022-07-17T10:32:36;102266.06;;;21.42;51.72
48824;BME280;34640;53.590;10.054;2022-07-17T10:35:10;102277.13;;;21.30;52.18
48824;BME280;34640;53.590;10.054;2022-07-17T10:37:44;102268.38;;;21.12;52.59
48824;BME280;34640;53.590;10.054;2022-07-17T10:40:19;102256.75;;;21.29;51.81
48824;BME280;34640;53.590;10.054;2022-07-17T10:42:57;102257.72;;;21.31;52.17
48824;BME280;34640;53.590;10.054;2022-07-17T10:45:32;102267.03;;;21.66;51.86
48824;BME280;34640;53.590;10.054;2022-07-17T10:48:08;102265.50;;;21.49;52.37
48824;BME280;34640;53.590;10.054;2022-07-17T10:50:44;102266.25;;;21.46;53.08
48824;BME280;34640;53.590;10.054;2022-07-17T10:53:20;102261.03;;;21.70;51.81
48824;BME280;34640;53.590;10.054;2022-07-17T10:55:57;102260.41;;;21.77;51.22
48824;BME280;34640;53.590;10.054;2022-07-17T10:58:33;102263.13;;;21.79;51.51
48824;BME280;34640;53.590;10.054;2022-07-17T11:01:08;102265.81;;;21.80;51.60
48824;BME280;34640;53.590;10.054;2022-07-17T11:03:45;102263.28;;;21.83;50.99
48824;BME280;34640;53.590;10.054;2022-07-17T11:06:20;102260.63;;;21.83;51.10
48824;BME280;34640;53.590;10.054;2022-07-17T11:08:55;102263.22;;;21.82;49.81
48824;BME280;34640;53.590;10.054;2022-07-17T11:11:37;102263.13;;;21.79;51.27
48824;BME280;34640;53.590;10.054;2022-07-17T11:14:12;102259.00;;;21.87;51.43
48824;BME280;34640;53.590;10.054;2022-07-17T11:16:47;102254.09;;;21.98;51.36
48824;BME280;34640;53.590;10.054;2022-07-17T11:19:21;102245.97;;;21.93;50.50
48824;BME280;34640;53.590;10.054;2022-07-17T11:21:56;102255.31;;;22.06;50.45
48824;BME280;34640;53.590;10.054;2022-07-17T11:24:36;102255.41;;;22.09;50.62
48824;BME280;34640;53.590;10.054;2022-07-17T11:27:10;102255.13;;;22.25;50.20
48824;BME280;34640;53.590;10.054;2022-07-17T11:29:45;102252.28;;;22.19;50.75
48824;BME280;34640;53.590;10.054;2022-07-17T11:32:19;102255.25;;;22.28;50.59
48824;BME280;34640;53.590;10.054;2022-07-17T11:34:52;102260.31;;;22.46;50.32
48824;BME280;34640;53.590;10.054;2022-07-17T11:37:28;102255.78;;;22.43;49.65
48824;BME280;34640;53.590;10.054;2022-07-17T11:40:04;102253.59;;;22.32;49.40
48824;BME280;34640;53.590;10.054;2022-07-17T11:42:38;102267.28;;;22.18;49.90
48824;BME280;34640;53.590;10.054;2022-07-17T11:45:11;102251.31;;;22.17;49.40
48824;BME280;34640;53.590;10.054;2022-07-17T11:47:44;102262.66;;;22.13;49.86
48824;BME280;34640;53.590;10.054;2022-07-17T11:50:20;102252.47;;;22.01;50.29
48824;BME280;34640;53.590;10.054;2022-07-17T11:52:53;102247.66;;;22.13;50.62
48824;BME280;34640;53.590;10.054;2022-07-17T11:55:38;102237.50;;;22.27;49.72
48824;BME280;34640;53.590;10.054;2022-07-17T11:58:11;102257.44;;;22.40;50.68
48824;BME280;34640;53.590;10.054;2022-07-17T12:00:44;102248.47;;;22.36;50.27
48824;BME280;34640;53.590;10.054;2022-07-17T12:03:25;102241.66;;;22.44;50.57
48824;BME280;34640;53.590;10.054;2022-07-17T12:05:58;102247.22;;;22.52;50.42
48824;BME280;34640;53.590;10.054;2022-07-17T12:08:32;102251.09;;;22.60;50.18
48824;BME280;34640;53.590;10.054;2022-07-17T12:11:07;102246.97;;;22.44;49.85
48824;BME280;34640;53.590;10.054;2022-07-17T12:13:42;102240.81;;;22.20;50.59
48824;BME280;34640;53.590;10.054;2022-07-17T12:16:21;102246.38;;;22.27;50.79
48824;BME280;34640;53.590;10.054;2022-07-17T12:19:00;102244.31;;;22.44;50.61
48824;BME280;34640;53.590;10.054;2022-07-17T12:21:52;102246.78;;;22.64;50.64
48824;BME280;34640;53.590;10.054;2022-07-17T12:24:28;102249.38;;;22.62;50.07
48824;BME280;34640;53.590;10.054;2022-07-17T12:27:05;102252.34;;;22.46;50.67
48824;BME280;34640;53.590;10.054;2022-07-17T12:29:41;102247.16;;;22.25;50.19
48824;BME280;34640;53.590;10.054;2022-07-17T12:32:15;102252.63;;;22.30;49.42
48824;BME280;34640;53.590;10.054;2022-07-17T12:34:49;102244.97;;;22.37;50.12
48824;BME280;34640;53.590;10.054;2022-07-17T12:37:22;102248.03;;;22.49;50.01
48824;BME280;34640;53.590;10.054;2022-07-17T12:39:55;102254.03;;;22.44;50.29
48824;BME280;34640;53.590;10.054;2022-07-17T12:42:30;102246.06;;;22.44;50.17
48824;BME280;34640;53.590;10.054;2022-07-17T12:45:04;102239.59;;;22.36;50.77
48824;BME280;34640;53.590;10.054;2022-07-17T12:47:37;102239.38;;;22.30;50.74
48824;BME280;34640;53.590;10.054;2022-07-17T12:50:10;102225.94;;;22.25;50.35
48824;BME280;34640;53.590;10.054;2022-07-17T12:52:43;102223.88;;;22.16;51.38
48824;BME280;34640;53.590;10.054;2022-07-17T12:55:17;102234.53;;;22.18;50.89
48824;BME280;34640;53.590;10.054;2022-07-17T12:57:51;102232.31;;;22.30;50.60
48824;BME280;34640;53.590;10.054;2022-07-17T13:00:24;102233.31;;;22.34;51.19
48824;BME280;34640;53.590;10.054;2022-07-17T13:02:58;102234.34;;;22.37;50.97
48824;BME280;34640;53.590;10.054;2022-07-17T13:05:33;102234.50;;;22.42;51.06
48824;BME280;34640;53.590;10.054;2022-07-17T13:08:06;102235.56;;;22.47;50.88
48824;BME280;34640;53.590;10.054;2022-07-17T13:10:39;102236.22;;;22.40;50.62
48824;BME280;34640;53.590;10.054;2022-07-17T13:13:13;102231.63;;;22.36;47.80